sensor_id;sensor_type;location;lat;lon;timestamp;temperature;humidity
41628;DHT22;27321;50.816;6.054;2023-04-29T00:01:30;13.70;72.30
41628;DHT22;27321;50.816;6.054;2023-04-29T00:04:31;13.70;72.80
41628;DHT22;27321;50.816;6.054;2023-04-29T00:07:31;13.80;72.90
41628;DHT22;27321;50.816;6.054;2023-04-29T00:10:33;13.80;73.00
41628;DHT22;27321;50.816;6.054;2023-04-29T00:13:34;13.90;72.80
41628;DHT22;27321;50.816;6.054;2023-04-29T00:16:35;13.90;72.20
41628;DHT22;27321;50.816;6.054;2023-04-29T00:19:37;13.80;71.50
41628;DHT22;27321;50.816;6.054;2023-04-29T00:22:38;13.80;71.20
41628;DHT22;27321;50.816;6.054;2023-04-29T00:25:39;13.70;70.80
41628;DHT22;27321;50.816;6.054;2023-04-29T00:28:40;13.70;71.30
41628;DHT22;27321;50.816;6.054;2023-04-29T00:31:41;13.60;71.40
41628;DHT22;27321;50.816;6.054;2023-04-29T00:34:42;13.50;71.90
41628;DHT22;27321;50.816;6.054;2023-04-29T00:37:43;13.40;72.00
41628;DHT22;27321;50.816;6.054;2023-04-29T00:40:44;13.40;72.70
41628;DHT22;27321;50.816;6.054;2023-04-29T00:43:45;13.40;72.40
41628;DHT22;27321;50.816;6.054;2023-04-29T00:46:46;13.30;72.50
41628;DHT22;27321;50.816;6.054;2023-04-29T00:49:47;13.30;72.50
41628;DHT22;27321;50.816;6.054;2023-04-29T00:52:48;13.40;72.90
41628;DHT22;27321;50.816;6.054;2023-04-29T00:55:50;13.40;72.70
41628;DHT22;27321;50.816;6.054;2023-04-29T00:58:51;13.40;72.80
41628;DHT22;27321;50.816;6.054;2023-04-29T01:01:53;13.40;72.80
41628;DHT22;27321;50.816;6.054;2023-04-29T01:04:54;13.40;73.10
41628;DHT22;27321;50.816;6.054;2023-04-29T01:08:29;13.50;72.80
41628;DHT22;27321;50.816;6.054;2023-04-29T01:18:41;13.30;72.70
41628;DHT22;27321;50.816;6.054;2023-04-29T01:21:51;13.30;73.10
41628;DHT22;27321;50.816;6.054;2023-04-29T01:24:54;13.50;72.90
41628;DHT22;27321;50.816;6.054;2023-04-29T01:28:17;13.40;72.70
41628;DHT22;27321;50.816;6.054;2023-04-29T01:31:41;13.50;73.00
41628;DHT22;27321;50.816;6.054;2023-04-29T01:34:59;13.50;72.70
41628;DHT22;27321;50.816;6.054;2023-04-29T01:42:04;13.50;73.10
41628;DHT22;27321;50.816;6.054;2023-04-29T01:45:14;13.60;72.80
41628;DHT22;27321;50.816;6.054;2023-04-29T01:48:17;13.60;72.90
41628;DHT22;27321;50.816;6.054;2023-04-29T01:51:20;13.60;72.70
41628;DHT22;27321;50.816;6.054;2023-04-29T01:54:21;13.50;72.40
41628;DHT22;27321;50.816;6.054;2023-04-29T01:57:23;13.50;72.60
41628;DHT22;27321;50.816;6.054;2023-04-29T02:00:40;13.50;73.00
41628;DHT22;27321;50.816;6.054;2023-04-29T02:03:42;13.50;72.50
41628;DHT22;27321;50.816;6.054;2023-04-29T02:06:45;13.50;72.80
41628;DHT22;27321;50.816;6.054;2023-04-29T02:09:46;13.50;72.60
41628;DHT22;27321;50.816;6.054;2023-04-29T02:12:47;13.50;72.00
41628;DHT22;27321;50.816;6.054;2023-04-29T02:15:49;13.40;72.80
41628;DHT22;27321;50.816;6.054;2023-04-29T02:18:50;13.40;72.80
41628;DHT22;27321;50.816;6.054;2023-04-29T02:21:51;13.30;72.70
41628;DHT22;27321;50.816;6.054;2023-04-29T02:24:52;13.30;73.20
41628;DHT22;27321;50.816;6.054;2023-04-29T02:27:53;13.30;73.40
41628;DHT22;27321;50.816;6.054;2023-04-29T02:30:55;13.40;73.10
41628;DHT22;27321;50.816;6.054;2023-04-29T02:34:01;13.20;73.10
41628;DHT22;27321;50.816;6.054;2023-04-29T02:37:02;13.10;73.30
41628;DHT22;27321;50.816;6.054;2023-04-29T02:40:04;13.10;73.30
41628;DHT22;27321;50.816;6.054;2023-04-29T02:43:05;13.10;73.50
41628;DHT22;27321;50.816;6.054;2023-04-29T02:46:07;13.10;72.80
41628;DHT22;27321;50.816;6.054;2023-04-29T02:49:08;13.10;73.30
41628;DHT22;27321;50.816;6.054;2023-04-29T02:52:09;13.10;72.90
41628;DHT22;27321;50.816;6.054;2023-04-29T02:55:10;13.10;73.10
41628;DHT22;27321;50.816;6.054;2023-04-29T02:58:11;13.20;72.60
41628;DHT22;27321;50.816;6.054;2023-04-29T03:01:12;13.20;72.40
41628;DHT22;27321;50.816;6.054;2023-04-29T03:04:13;13.10;71.80
41628;DHT22;27321;50.816;6.054;2023-04-29T03:07:14;13.00;72.00
41628;DHT22;27321;50.816;6.054;2023-04-29T03:10:16;12.90;73.20
41628;DHT22;27321;50.816;6.054;2023-04-29T03:13:18;12.80;72.60
41628;DHT22;27321;50.816;6.054;2023-04-29T03:16:20;12.80;73.80
41628;DHT22;27321;50.816;6.054;2023-04-29T03:19:21;12.70;73.60
41628;DHT22;27321;50.816;6.054;2023-04-29T03:22:24;12.70;73.80
41628;DHT22;27321;50.816;6.054;2023-04-29T03:25:25;12.60;73.70
41628;DHT22;27321;50.816;6.054;2023-04-29T03:28:26;12.50;73.70
41628;DHT22;27321;50.816;6.054;2023-04-29T03:31:27;12.60;74.30
41628;DHT22;27321;50.816;6.054;2023-04-29T03:34:28;12.60;73.70
41628;DHT22;27321;50.816;6.054;2023-04-29T03:37:48;12.60;73.50
41628;DHT22;27321;50.816;6.054;2023-04-29T03:40:55;12.60;73.80
41628;DHT22;27321;50.816;6.054;2023-04-29T03:43:56;12.50;73.30
41628;DHT22;27321;50.816;6.054;2023-04-29T03:47:01;12.40;74.00
41628;DHT22;27321;50.816;6.054;2023-04-29T03:50:03;12.40;73.90
41628;DHT22;27321;50.816;6.054;2023-04-29T03:53:04;12.30;74.20
41628;DHT22;27321;50.816;6.054;2023-04-29T03:56:06;12.30;74.70
41628;DHT22;27321;50.816;6.054;2023-04-29T03:59:07;12.30;74.20
41628;DHT22;27321;50.816;6.054;2023-04-29T04:02:09;12.20;74.40
41628;DHT22;27321;50.816;6.054;2023-04-29T04:05:10;12.20;75.00
41628;DHT22;27321;50.816;6.054;2023-04-29T04:08:12;12.20;74.70
41628;DHT22;27321;50.816;6.054;2023-04-29T04:11:25;12.10;75.20
41628;DHT22;27321;50.816;6.054;2023-04-29T04:14:31;12.10;75.40
41628;DHT22;27321;50.816;6.054;2023-04-29T04:17:32;12.10;75.60
41628;DHT22;27321;50.816;6.054;2023-04-29T04:20:36;12.20;75.50
41628;DHT22;27321;50.816;6.054;2023-04-29T04:23:37;12.10;75.80
41628;DHT22;27321;50.816;6.054;2023-04-29T04:26:44;12.10;75.90
41628;DHT22;27321;50.816;6.054;2023-04-29T04:30:04;11.90;76.40
41628;DHT22;27321;50.816;6.054;2023-04-29T04:33:06;11.80;76.70
41628;DHT22;27321;50.816;6.054;2023-04-29T04:36:08;11.90;76.80
41628;DHT22;27321;50.816;6.054;2023-04-29T04:39:09;11.80;76.70
41628;DHT22;27321;50.816;6.054;2023-04-29T04:42:11;11.90;76.60
41628;DHT22;27321;50.816;6.054;2023-04-29T04:45:12;11.90;76.70
41628;DHT22;27321;50.816;6.054;2023-04-29T04:48:21;11.80;76.80
41628;DHT22;27321;50.816;6.054;2023-04-29T04:51:24;11.80;77.30
41628;DHT22;27321;50.816;6.054;2023-04-29T04:54:26;11.60;76.80
41628;DHT22;27321;50.816;6.054;2023-04-29T04:57:35;11.60;76.50
41628;DHT22;27321;50.816;6.054;2023-04-29T05:00:37;11.60;76.70
41628;DHT22;27321;50.816;6.054;2023-04-29T05:03:38;11.60;76.40
41628;DHT22;27321;50.816;6.054;2023-04-29T05:06:39;11.50;76.30
41628;DHT22;27321;50.816;6.054;2023-04-29T05:09:40;11.50;76.80
41628;DHT22;27321;50.816;6.054;2023-04-29T05:12:41;11.50;76.60
41628;DHT22;27321;50.816;6.054;2023-04-29T05:15:42;11.50;76.70
41628;DHT22;27321;50.816;6.054;2023-04-29T05:18:44;11.50;77.10
41628;DHT22;27321;50.816;6.054;2023-04-29T05:21:46;11.50;76.40
41628;DHT22;27321;50.816;6.054;2023-04-29T05:24:47;11.50;76.80
41628;DHT22;27321;50.816;6.054;2023-04-29T05:27:49;11.50;77.10
41628;DHT22;27321;50.816;6.054;2023-04-29T05:30:53;11.50;77.20
41628;DHT22;27321;50.816;6.054;2023-04-29T05:33:54;11.60;77.40
41628;DHT22;27321;50.816;6.054;2023-04-29T05:36:55;11.60;76.90
41628;DHT22;27321;50.816;6.054;2023-04-29T05:39:58;11.70;76.40
41628;DHT22;27321;50.816;6.054;2023-04-29T05:42:59;11.70;76.10
41628;DHT22;27321;50.816;6.054;2023-04-29T05:46:00;11.60;77.10
41628;DHT22;27321;50.816;6.054;2023-04-29T05:49:01;11.70;77.30
41628;DHT22;27321;50.816;6.054;2023-04-29T05:52:02;11.60;77.40
41628;DHT22;27321;50.816;6.054;2023-04-29T05:55:08;11.80;76.70
41628;DHT22;27321;50.816;6.054;2023-04-29T05:58:11;11.80;76.90
41628;DHT22;27321;50.816;6.054;2023-04-29T06:01:12;11.80;76.30
41628;DHT22;27321;50.816;6.054;2023-04-29T06:04:13;11.70;76.50
41628;DHT22;27321;50.816;6.054;2023-04-29T06:07:35;11.70;76.70
41628;DHT22;27321;50.816;6.054;2023-04-29T06:10:44;11.70;76.80
41628;DHT22;27321;50.816;6.054;2023-04-29T06:13:46;11.80;76.70
41628;DHT22;27321;50.816;6.054;2023-04-29T06:16:47;11.80;75.90
41628;DHT22;27321;50.816;6.054;2023-04-29T06:19:49;11.80;76.40
41628;DHT22;27321;50.816;6.054;2023-04-29T06:22:50;11.90;76.50
41628;DHT22;27321;50.816;6.054;2023-04-29T06:25:51;11.90;76.00
41628;DHT22;27321;50.816;6.054;2023-04-29T06:28:52;11.90;76.00
41628;DHT22;27321;50.816;6.054;2023-04-29T06:31:54;11.90;76.10
41628;DHT22;27321;50.816;6.054;2023-04-29T06:34:56;11.80;76.30
41628;DHT22;27321;50.816;6.054;2023-04-29T06:38:07;11.70;76.60
41628;DHT22;27321;50.816;6.054;2023-04-29T06:41:25;11.60;76.60
41628;DHT22;27321;50.816;6.054;2023-04-29T06:44:39;11.60;76.50
41628;DHT22;27321;50.816;6.054;2023-04-29T06:48:12;11.60;76.40
41628;DHT22;27321;50.816;6.054;2023-04-29T06:51:19;11.60;76.70
41628;DHT22;27321;50.816;6.054;2023-04-29T06:54:20;11.70;76.50
41628;DHT22;27321;50.816;6.054;2023-04-29T06:57:24;11.80;76.30
41628;DHT22;27321;50.816;6.054;2023-04-29T07:00:25;11.80;76.00
41628;DHT22;27321;50.816;6.054;2023-04-29T07:03:28;11.80;76.10
41628;DHT22;27321;50.816;6.054;2023-04-29T07:06:31;11.80;76.20
41628;DHT22;27321;50.816;6.054;2023-04-29T07:09:32;11.90;75.50
41628;DHT22;27321;50.816;6.054;2023-04-29T07:12:33;11.90;76.00
41628;DHT22;27321;50.816;6.054;2023-04-29T07:15:34;12.00;75.90
41628;DHT22;27321;50.816;6.054;2023-04-29T07:18:35;12.00;75.60
41628;DHT22;27321;50.816;6.054;2023-04-29T07:21:37;11.90;75.90
41628;DHT22;27321;50.816;6.054;2023-04-29T07:24:38;11.80;75.90
41628;DHT22;27321;50.816;6.054;2023-04-29T07:27:39;11.90;76.30
41628;DHT22;27321;50.816;6.054;2023-04-29T07:30:40;12.00;75.40
41628;DHT22;27321;50.816;6.054;2023-04-29T07:33:41;11.90;75.60
41628;DHT22;27321;50.816;6.054;2023-04-29T07:36:44;12.00;75.50
41628;DHT22;27321;50.816;6.054;2023-04-29T07:39:45;12.00;75.90
41628;DHT22;27321;50.816;6.054;2023-04-29T07:42:47;12.00;75.00
41628;DHT22;27321;50.816;6.054;2023-04-29T07:45:48;12.10;75.50
41628;DHT22;27321;50.816;6.054;2023-04-29T07:48:49;12.10;74.80
41628;DHT22;27321;50.816;6.054;2023-04-29T07:51:51;12.00;74.10
41628;DHT22;27321;50.816;6.054;2023-04-29T07:54:52;11.90;74.30
41628;DHT22;27321;50.816;6.054;2023-04-29T07:57:56;11.90;74.40
41628;DHT22;27321;50.816;6.054;2023-04-29T08:01:07;11.90;74.60
41628;DHT22;27321;50.816;6.054;2023-04-29T08:04:10;11.90;74.90
41628;DHT22;27321;50.816;6.054;2023-04-29T08:07:20;12.00;74.40
41628;DHT22;27321;50.816;6.054;2023-04-29T08:10:21;11.90;74.80
41628;DHT22;27321;50.816;6.054;2023-04-29T08:13:22;12.00;74.00
41628;DHT22;27321;50.816;6.054;2023-04-29T08:16:24;12.00;74.80
41628;DHT22;27321;50.816;6.054;2023-04-29T08:19:26;12.10;73.80
41628;DHT22;27321;50.816;6.054;2023-04-29T08:22:27;12.10;74.20
41628;DHT22;27321;50.816;6.054;2023-04-29T08:25:28;12.00;74.10
41628;DHT22;27321;50.816;6.054;2023-04-29T08:28:29;12.00;75.20
41628;DHT22;27321;50.816;6.054;2023-04-29T08:31:30;11.90;74.80
41628;DHT22;27321;50.816;6.054;2023-04-29T08:34:31;11.80;75.60
41628;DHT22;27321;50.816;6.054;2023-04-29T08:37:33;11.80;74.80
41628;DHT22;27321;50.816;6.054;2023-04-29T08:40:44;11.80;75.70
41628;DHT22;27321;50.816;6.054;2023-04-29T08:43:46;11.80;75.10
41628;DHT22;27321;50.816;6.054;2023-04-29T08:46:49;11.90;75.40
41628;DHT22;27321;50.816;6.054;2023-04-29T08:49:50;11.90;75.10
41628;DHT22;27321;50.816;6.054;2023-04-29T08:52:51;11.90;74.90
41628;DHT22;27321;50.816;6.054;2023-04-29T08:55:54;12.00;74.80
41628;DHT22;27321;50.816;6.054;2023-04-29T08:58:57;12.10;74.60
41628;DHT22;27321;50.816;6.054;2023-04-29T09:01:59;12.10;74.70
41628;DHT22;27321;50.816;6.054;2023-04-29T09:05:06;12.10;74.70
41628;DHT22;27321;50.816;6.054;2023-04-29T09:08:10;12.10;74.60
41628;DHT22;27321;50.816;6.054;2023-04-29T09:11:16;12.00;73.90
41628;DHT22;27321;50.816;6.054;2023-04-29T09:14:18;12.00;74.50
41628;DHT22;27321;50.816;6.054;2023-04-29T09:17:37;12.20;74.00
41628;DHT22;27321;50.816;6.054;2023-04-29T09:20:39;12.10;73.60
41628;DHT22;27321;50.816;6.054;2023-04-29T09:23:40;12.10;74.00
41628;DHT22;27321;50.816;6.054;2023-04-29T09:26:42;12.20;74.00
41628;DHT22;27321;50.816;6.054;2023-04-29T09:29:58;12.10;73.50
41628;DHT22;27321;50.816;6.054;2023-04-29T09:33:05;12.10;73.90
41628;DHT22;27321;50.816;6.054;2023-04-29T09:36:07;12.10;73.60
41628;DHT22;27321;50.816;6.054;2023-04-29T09:39:10;12.10;74.10
41628;DHT22;27321;50.816;6.054;2023-04-29T09:42:14;12.10;73.60
41628;DHT22;27321;50.816;6.054;2023-04-29T09:45:31;12.20;74.10
41628;DHT22;27321;50.816;6.054;2023-04-29T09:48:33;12.30;73.50
41628;DHT22;27321;50.816;6.054;2023-04-29T09:51:54;12.40;73.50
41628;DHT22;27321;50.816;6.054;2023-04-29T09:55:04;12.60;73.30
41628;DHT22;27321;50.816;6.054;2023-04-29T09:58:06;12.70;73.30
41628;DHT22;27321;50.816;6.054;2023-04-29T10:01:07;12.80;72.00
41628;DHT22;27321;50.816;6.054;2023-04-29T10:04:15;12.80;71.50
41628;DHT22;27321;50.816;6.054;2023-04-29T10:07:17;12.70;71.20
41628;DHT22;27321;50.816;6.054;2023-04-29T10:10:20;12.70;71.40
41628;DHT22;27321;50.816;6.054;2023-04-29T10:13:24;12.70;70.90
41628;DHT22;27321;50.816;6.054;2023-04-29T10:16:32;12.80;71.70
41628;DHT22;27321;50.816;6.054;2023-04-29T10:19:57;13.10;71.60
41628;DHT22;27321;50.816;6.054;2023-04-29T10:23:05;13.50;71.30
41628;DHT22;27321;50.816;6.054;2023-04-29T10:26:07;13.90;70.70
41628;DHT22;27321;50.816;6.054;2023-04-29T10:29:13;14.10;68.20
41628;DHT22;27321;50.816;6.054;2023-04-29T10:32:16;14.30;67.50
41628;DHT22;27321;50.816;6.054;2023-04-29T10:35:19;14.50;66.60
41628;DHT22;27321;50.816;6.054;2023-04-29T10:38:32;14.50;65.40
41628;DHT22;27321;50.816;6.054;2023-04-29T10:41:42;14.50;65.40
41628;DHT22;27321;50.816;6.054;2023-04-29T10:48:34;14.60;66.00
41628;DHT22;27321;50.816;6.054;2023-04-29T10:51:43;14.50;66.20
41628;DHT22;27321;50.816;6.054;2023-04-29T10:55:01;14.40;66.10
41628;DHT22;27321;50.816;6.054;2023-04-29T10:58:04;14.40;66.50
41628;DHT22;27321;50.816;6.054;2023-04-29T11:01:06;14.20;65.50
41628;DHT22;27321;50.816;6.054;2023-04-29T11:04:08;14.10;65.90
41628;DHT22;27321;50.816;6.054;2023-04-29T11:07:25;14.10;66.30
41628;DHT22;27321;50.816;6.054;2023-04-29T11:10:36;14.10;67.00
41628;DHT22;27321;50.816;6.054;2023-04-29T11:13:40;14.10;66.30
41628;DHT22;27321;50.816;6.054;2023-04-29T11:16:46;14.00;66.60
41628;DHT22;27321;50.816;6.054;2023-04-29T11:19:50;14.00;66.50
41628;DHT22;27321;50.816;6.054;2023-04-29T11:22:52;14.10;66.90
41628;DHT22;27321;50.816;6.054;2023-04-29T11:25:54;14.30;66.60
41628;DHT22;27321;50.816;6.054;2023-04-29T11:28:56;14.30;65.90
41628;DHT22;27321;50.816;6.054;2023-04-29T11:32:01;14.50;65.60
41628;DHT22;27321;50.816;6.054;2023-04-29T11:35:13;14.30;65.10
41628;DHT22;27321;50.816;6.054;2023-04-29T11:38:15;14.20;65.90
41628;DHT22;27321;50.816;6.054;2023-04-29T11:41:22;14.20;65.90
41628;DHT22;27321;50.816;6.054;2023-04-29T11:44:23;14.20;65.90
41628;DHT22;27321;50.816;6.054;2023-04-29T11:47:28;14.10;65.50
41628;DHT22;27321;50.816;6.054;2023-04-29T11:50:30;14.10;65.60
41628;DHT22;27321;50.816;6.054;2023-04-29T11:53:32;14.00;66.40
41628;DHT22;27321;50.816;6.054;2023-04-29T11:56:35;14.10;66.90
41628;DHT22;27321;50.816;6.054;2023-04-29T11:59:37;14.50;66.30
41628;DHT22;27321;50.816;6.054;2023-04-29T12:02:42;14.70;64.60
41628;DHT22;27321;50.816;6.054;2023-04-29T12:05:50;14.70;64.70
41628;DHT22;27321;50.816;6.054;2023-04-29T12:08:53;14.70;65.10
41628;DHT22;27321;50.816;6.054;2023-04-29T12:11:53;14.80;64.60
41628;DHT22;27321;50.816;6.054;2023-04-29T12:14:55;14.80;64.20
41628;DHT22;27321;50.816;6.054;2023-04-29T12:17:56;14.70;64.30
41628;DHT22;27321;50.816;6.054;2023-04-29T12:20:57;14.60;65.70
41628;DHT22;27321;50.816;6.054;2023-04-29T12:24:00;14.40;65.70
41628;DHT22;27321;50.816;6.054;2023-04-29T12:27:03;14.30;66.10
41628;DHT22;27321;50.816;6.054;2023-04-29T12:30:08;14.40;66.30
41628;DHT22;27321;50.816;6.054;2023-04-29T12:33:10;14.40;66.20
41628;DHT22;27321;50.816;6.054;2023-04-29T12:36:16;14.60;66.10
41628;DHT22;27321;50.816;6.054;2023-04-29T12:39:20;14.80;65.00
41628;DHT22;27321;50.816;6.054;2023-04-29T12:42:21;14.80;64.10
41628;DHT22;27321;50.816;6.054;2023-04-29T12:48:33;14.80;63.60
41628;DHT22;27321;50.816;6.054;2023-04-29T12:51:34;14.80;64.40
41628;DHT22;27321;50.816;6.054;2023-04-29T12:54:39;14.90;64.10
41628;DHT22;27321;50.816;6.054;2023-04-29T12:57:42;15.10;64.00
41628;DHT22;27321;50.816;6.054;2023-04-29T13:00:43;15.10;64.20
41628;DHT22;27321;50.816;6.054;2023-04-29T13:03:44;15.10;64.20
41628;DHT22;27321;50.816;6.054;2023-04-29T13:06:45;15.10;63.50
41628;DHT22;27321;50.816;6.054;2023-04-29T13:09:46;15.10;64.20
41628;DHT22;27321;50.816;6.054;2023-04-29T13:12:47;15.30;64.00
41628;DHT22;27321;50.816;6.054;2023-04-29T13:15:48;15.20;63.80
41628;DHT22;27321;50.816;6.054;2023-04-29T13:18:51;15.10;63.80
41628;DHT22;27321;50.816;6.054;2023-04-29T13:21:52;15.10;64.00
41628;DHT22;27321;50.816;6.054;2023-04-29T13:24:53;15.00;64.50
41628;DHT22;27321;50.816;6.054;2023-04-29T13:27:54;15.10;64.70
41628;DHT22;27321;50.816;6.054;2023-04-29T13:30:55;15.10;64.30
41628;DHT22;27321;50.816;6.054;2023-04-29T13:33:56;15.20;63.90
41628;DHT22;27321;50.816;6.054;2023-04-29T13:36:57;15.30;64.00
41628;DHT22;27321;50.816;6.054;2023-04-29T13:39:58;15.40;63.00
41628;DHT22;27321;50.816;6.054;2023-04-29T13:42:59;15.40;63.00
41628;DHT22;27321;50.816;6.054;2023-04-29T13:46:00;15.60;63.10
41628;DHT22;27321;50.816;6.054;2023-04-29T13:49:01;15.70;62.30
41628;DHT22;27321;50.816;6.054;2023-04-29T13:52:03;16.00;61.70
41628;DHT22;27321;50.816;6.054;2023-04-29T13:55:04;16.10;61.50
41628;DHT22;27321;50.816;6.054;2023-04-29T13:58:08;16.10;60.70
41628;DHT22;27321;50.816;6.054;2023-04-29T14:01:09;16.20;60.90
41628;DHT22;27321;50.816;6.054;2023-04-29T14:04:11;16.20;60.10
41628;DHT22;27321;50.816;6.054;2023-04-29T14:07:12;16.30;60.20
41628;DHT22;27321;50.816;6.054;2023-04-29T14:10:13;16.20;60.10
41628;DHT22;27321;50.816;6.054;2023-04-29T14:13:14;16.40;60.10
41628;DHT22;27321;50.816;6.054;2023-04-29T14:16:15;16.50;60.50
41628;DHT22;27321;50.816;6.054;2023-04-29T14:19:16;16.40;60.00
41628;DHT22;27321;50.816;6.054;2023-04-29T14:22:17;16.40;60.30
41628;DHT22;27321;50.816;6.054;2023-04-29T14:25:18;16.40;60.40
41628;DHT22;27321;50.816;6.054;2023-04-29T14:28:19;16.40;59.30
41628;DHT22;27321;50.816;6.054;2023-04-29T14:31:20;16.30;59.50
41628;DHT22;27321;50.816;6.054;2023-04-29T14:34:22;16.40;59.30
41628;DHT22;27321;50.816;6.054;2023-04-29T14:37:23;16.50;58.90
41628;DHT22;27321;50.816;6.054;2023-04-29T14:40:24;16.50;58.70
41628;DHT22;27321;50.816;6.054;2023-04-29T14:43:25;16.50;58.90
41628;DHT22;27321;50.816;6.054;2023-04-29T14:46:26;16.60;58.90
41628;DHT22;27321;50.816;6.054;2023-04-29T14:49:28;16.70;58.80
41628;DHT22;27321;50.816;6.054;2023-04-29T14:52:29;16.70;58.20
41628;DHT22;27321;50.816;6.054;2023-04-29T14:55:30;16.70;59.00
41628;DHT22;27321;50.816;6.054;2023-04-29T14:58:31;16.60;58.70
41628;DHT22;27321;50.816;6.054;2023-04-29T15:01:32;16.60;59.10
41628;DHT22;27321;50.816;6.054;2023-04-29T15:04:33;16.60;58.90
41628;DHT22;27321;50.816;6.054;2023-04-29T15:07:34;16.50;58.30
41628;DHT22;27321;50.816;6.054;2023-04-29T15:10:35;16.40;57.80
41628;DHT22;27321;50.816;6.054;2023-04-29T15:13:36;16.40;58.50
41628;DHT22;27321;50.816;6.054;2023-04-29T15:16:37;16.40;58.40
41628;DHT22;27321;50.816;6.054;2023-04-29T15:19:38;16.40;58.30
41628;DHT22;27321;50.816;6.054;2023-04-29T15:22:39;16.30;58.40
41628;DHT22;27321;50.816;6.054;2023-04-29T15:25:40;16.20;59.00
41628;DHT22;27321;50.816;6.054;2023-04-29T15:28:41;16.20;58.60
41628;DHT22;27321;50.816;6.054;2023-04-29T15:31:45;16.10;58.50
41628;DHT22;27321;50.816;6.054;2023-04-29T15:34:46;16.00;58.70
41628;DHT22;27321;50.816;6.054;2023-04-29T15:37:46;16.00;59.00
41628;DHT22;27321;50.816;6.054;2023-04-29T15:40:48;16.00;59.50
41628;DHT22;27321;50.816;6.054;2023-04-29T15:43:49;16.00;59.80
41628;DHT22;27321;50.816;6.054;2023-04-29T15:46:50;15.80;60.30
41628;DHT22;27321;50.816;6.054;2023-04-29T15:49:51;15.80;60.70
41628;DHT22;27321;50.816;6.054;2023-04-29T15:52:52;15.60;61.50
41628;DHT22;27321;50.816;6.054;2023-04-29T15:55:55;15.60;62.10
41628;DHT22;27321;50.816;6.054;2023-04-29T15:58:56;15.40;62.20
41628;DHT22;27321;50.816;6.054;2023-04-29T16:01:57;15.40;62.90
41628;DHT22;27321;50.816;6.054;2023-04-29T16:04:58;15.30;63.20
41628;DHT22;27321;50.816;6.054;2023-04-29T16:07:59;15.20;63.80
41628;DHT22;27321;50.816;6.054;2023-04-29T16:11:00;15.20;63.60
41628;DHT22;27321;50.816;6.054;2023-04-29T16:14:01;15.10;63.60
41628;DHT22;27321;50.816;6.054;2023-04-29T16:17:02;15.10;63.80
41628;DHT22;27321;50.816;6.054;2023-04-29T16:20:05;15.00;64.00
41628;DHT22;27321;50.816;6.054;2023-04-29T16:23:07;15.00;63.70
41628;DHT22;27321;50.816;6.054;2023-04-29T16:26:08;15.00;63.50
41628;DHT22;27321;50.816;6.054;2023-04-29T16:29:09;15.10;63.50
41628;DHT22;27321;50.816;6.054;2023-04-29T16:32:11;15.10;63.50
41628;DHT22;27321;50.816;6.054;2023-04-29T16:35:12;15.20;63.50
41628;DHT22;27321;50.816;6.054;2023-04-29T16:38:13;15.20;63.30
41628;DHT22;27321;50.816;6.054;2023-04-29T16:41:14;15.20;63.30
41628;DHT22;27321;50.816;6.054;2023-04-29T16:44:15;15.30;63.20
41628;DHT22;27321;50.816;6.054;2023-04-29T16:47:16;15.30;63.20
41628;DHT22;27321;50.816;6.054;2023-04-29T16:50:19;15.30;63.50
41628;DHT22;27321;50.816;6.054;2023-04-29T16:53:21;15.40;63.40
41628;DHT22;27321;50.816;6.054;2023-04-29T16:56:22;15.40;63.40
41628;DHT22;27321;50.816;6.054;2023-04-29T16:59:23;15.50;63.70
41628;DHT22;27321;50.816;6.054;2023-04-29T17:02:24;15.50;63.50
41628;DHT22;27321;50.816;6.054;2023-04-29T17:05:25;15.50;63.40
41628;DHT22;27321;50.816;6.054;2023-04-29T17:08:26;15.50;63.20
41628;DHT22;27321;50.816;6.054;2023-04-29T17:11:28;15.40;63.40
41628;DHT22;27321;50.816;6.054;2023-04-29T17:14:29;15.40;63.40
41628;DHT22;27321;50.816;6.054;2023-04-29T17:17:30;15.40;63.40
41628;DHT22;27321;50.816;6.054;2023-04-29T17:20:31;15.40;63.50
41628;DHT22;27321;50.816;6.054;2023-04-29T17:23:32;15.40;63.80
41628;DHT22;27321;50.816;6.054;2023-04-29T17:26:33;15.40;63.10
41628;DHT22;27321;50.816;6.054;2023-04-29T17:29:34;15.50;63.30
41628;DHT22;27321;50.816;6.054;2023-04-29T17:32:35;15.50;62.70
41628;DHT22;27321;50.816;6.054;2023-04-29T17:35:38;15.40;62.60
41628;DHT22;27321;50.816;6.054;2023-04-29T17:38:40;15.40;63.00
41628;DHT22;27321;50.816;6.054;2023-04-29T17:41:41;15.40;63.00
41628;DHT22;27321;50.816;6.054;2023-04-29T17:44:42;15.40;63.00
41628;DHT22;27321;50.816;6.054;2023-04-29T17:47:43;15.40;62.90
41628;DHT22;27321;50.816;6.054;2023-04-29T17:50:44;15.30;62.20
41628;DHT22;27321;50.816;6.054;2023-04-29T17:53:46;15.40;62.50
41628;DHT22;27321;50.816;6.054;2023-04-29T17:56:47;15.40;62.70
41628;DHT22;27321;50.816;6.054;2023-04-29T17:59:48;15.50;62.60
41628;DHT22;27321;50.816;6.054;2023-04-29T18:02:49;15.50;63.00
41628;DHT22;27321;50.816;6.054;2023-04-29T18:05:50;15.60;62.60
41628;DHT22;27321;50.816;6.054;2023-04-29T18:08:51;15.50;62.30
41628;DHT22;27321;50.816;6.054;2023-04-29T18:11:52;15.50;61.70
41628;DHT22;27321;50.816;6.054;2023-04-29T18:14:53;15.40;61.70
41628;DHT22;27321;50.816;6.054;2023-04-29T18:17:54;15.40;61.80
41628;DHT22;27321;50.816;6.054;2023-04-29T18:20:55;15.40;61.60
41628;DHT22;27321;50.816;6.054;2023-04-29T18:23:56;15.30;61.80
41628;DHT22;27321;50.816;6.054;2023-04-29T18:26:57;15.20;62.20
41628;DHT22;27321;50.816;6.054;2023-04-29T18:29:58;15.20;62.40
41628;DHT22;27321;50.816;6.054;2023-04-29T18:33:00;15.10;63.00
41628;DHT22;27321;50.816;6.054;2023-04-29T18:36:01;15.10;63.10
41628;DHT22;27321;50.816;6.054;2023-04-29T18:39:03;15.00;63.90
41628;DHT22;27321;50.816;6.054;2023-04-29T18:42:04;14.90;64.40
41628;DHT22;27321;50.816;6.054;2023-04-29T18:45:05;14.80;64.90
41628;DHT22;27321;50.816;6.054;2023-04-29T18:48:07;14.80;65.20
41628;DHT22;27321;50.816;6.054;2023-04-29T18:51:08;14.70;65.40
41628;DHT22;27321;50.816;6.054;2023-04-29T18:54:09;14.60;65.50
41628;DHT22;27321;50.816;6.054;2023-04-29T18:57:10;14.60;65.90
41628;DHT22;27321;50.816;6.054;2023-04-29T19:00:12;14.50;66.10
41628;DHT22;27321;50.816;6.054;2023-04-29T19:03:14;14.50;66.40
41628;DHT22;27321;50.816;6.054;2023-04-29T19:06:16;14.40;66.40
41628;DHT22;27321;50.816;6.054;2023-04-29T19:09:16;14.30;66.40
41628;DHT22;27321;50.816;6.054;2023-04-29T19:12:17;14.30;66.30
41628;DHT22;27321;50.816;6.054;2023-04-29T19:15:18;14.30;66.40
41628;DHT22;27321;50.816;6.054;2023-04-29T19:18:19;14.20;66.30
41628;DHT22;27321;50.816;6.054;2023-04-29T19:21:22;14.20;66.40
41628;DHT22;27321;50.816;6.054;2023-04-29T19:24:23;14.20;66.30
41628;DHT22;27321;50.816;6.054;2023-04-29T19:27:24;14.10;66.20
41628;DHT22;27321;50.816;6.054;2023-04-29T19:30:25;14.10;66.20
41628;DHT22;27321;50.816;6.054;2023-04-29T19:33:26;14.00;66.30